Time;durP1;ratioP1;P1;durP2;ratioP2;P2;SDS_P1;SDS_P2;PMS_P1;PMS_P2;Temp;Humidity;BMP_temperature;BMP_pressure;BME280_temperature;BME280_humidity;BME280_pressure;Samples;Min_cycle;Max_cycle;Signal;HPM_P1;HPM_P2
2021/12/25 09:22:34;;;;;;;;;;;;;;;;;;5111244;27;20388;-86
2021/12/25 09:25:00;;;;;;;;;;;;;;;;;;5111250;28;19923;-86
2021/12/25 09:27:26;;;;;;;3.30;0.70;;;;;;;;;;5109519;28;19916;-86
2021/12/25 09:29:52;;;;;;;3.47;0.93;;;;;;;;;;5109168;28;20123;-87
2021/12/25 09:32:18;;;;;;;3.42;0.70;;;;;;;;;;5111140;28;20398;-86
2021/12/25 09:34:44;;;;;;;1.52;0.50;;;;;;;;;;5109010;28;20043;-86
2021/12/25 09:37:12;;;;;;;4.47;0.57;;;;;;;;;;5109187;28;20043;-87
2021/12/25 09:39:38;;;;;;;3.17;0.70;;;;;;;;;;5109364;28;20082;-85
2021/12/25 09:42:05;;;;;;;1.73;0.47;;;;;;;;;;5109415;28;20036;-84
2021/12/25 09:44:31;;;;;;;1.55;0.40;;;;;;;;;;5109164;28;20360;-87
2021/12/25 09:46:57;;;;;;;3.53;0.60;;;;;;;;;;5110282;28;20474;-88
2021/12/25 09:49:23;;;;;;;5.10;0.82;;;;;;;;;;5109271;28;20429;-87
2021/12/25 09:51:49;;;;;;;3.00;0.50;;;;;;;;;;5108935;28;20051;-86
2021/12/25 09:54:16;;;;;;;3.80;0.90;;;;;;;;;;5110166;28;20043;-86
2021/12/25 09:56:44;;;;;;;4.57;0.55;;;;;;;;;;5110304;28;20040;-84
2021/12/25 09:59:11;;;;;;;3.85;0.65;;;;;;;;;;5108961;28;20044;-85
2021/12/25 10:01:45;;;;;;;4.18;0.60;;;;;;;;;;5108898;28;20052;-85
2021/12/25 10:04:13;;;;;;;3.40;0.50;;;;;;;;;;5109730;28;20495;-84
2021/12/25 10:06:44;;;;;;;4.35;0.50;;;;;;;;;;5108813;28;20050;-83
2021/12/25 10:09:12;;;;;;;3.17;0.50;;;;;;;;;;5108576;28;20054;-84
2021/12/25 10:11:38;;;;;;;3.58;0.80;;;;;;;;;;5109706;28;20479;-84
2021/12/25 10:14:04;;;;;;;3.00;0.50;;;;;;;;;;5108316;28;20071;-83
2021/12/25 10:16:31;;;;;;;2.45;0.80;;;;;;;;;;5091693;28;20078;-83
2021/12/25 10:19:17;;;;;;;2.65;0.50;;;;;;;;;;5109741;28;20043;-81
2021/12/25 10:21:43;;;;;;;3.55;0.90;;;;;;;;;;5108311;28;20090;-83
2021/12/25 10:24:15;;;;;;;5.32;0.60;;;;;;;;;;5109284;28;20547;-82
2021/12/25 10:26:42;;;;;;;3.10;0.80;;;;;;;;;;5108436;28;20047;-82
2021/12/25 10:29:25;;;;;;;6.20;0.90;;;;;;;;;;5108042;28;20043;-82
2021/12/25 10:31:52;;;;;;;2.63;0.65;;;;;;;;;;5106488;28;20360;-82
2021/12/25 10:34:21;;;;;;;3.47;0.43;;;;;;;;;;5077399;28;20040;-83
2021/12/25 10:36:47;;;;;;;2.75;0.75;;;;;;;;;;5094441;28;20097;-83
2021/12/25 10:39:16;;;;;;;6.05;0.93;;;;;;;;;;5094208;28;20040;-83
2021/12/25 10:41:52;;;;;;;4.70;0.77;;;;;;;;;;5094140;28;20445;-83
2021/12/25 10:44:20;;;;;;;2.75;0.52;;;;;;;;;;5094371;28;20399;-83
2021/12/25 10:47:05;;;;;;;2.55;0.75;;;;;;;;;;5094260;28;20472;-83
2021/12/25 10:49:57;;;;;;;3.10;0.67;;;;;;;;;;5095531;28;20032;-83
2021/12/25 10:52:32;;;;;;;4.90;0.85;;;;;;;;;;5092897;28;20058;-83
2021/12/25 10:55:14;;;;;;;5.65;0.70;;;;;;;;;;5094278;28;20100;-83
2021/12/25 10:57:40;;;;;;;3.03;0.40;;;;;;;;;;5094120;28;20039;-83
2021/12/25 11:00:08;;;;;;;3.50;0.57;;;;;;;;;;5094947;28;20036;-84
2021/12/25 11:02:38;;;;;;;4.32;0.60;;;;;;;;;;5093935;28;20119;-82
2021/12/25 11:05:24;;;;;;;3.58;0.68;;;;;;;;;;5095198;28;20115;-83
2021/12/25 11:08:05;;;;;;;3.08;0.68;;;;;;;;;;5096487;28;20032;-83
2021/12/25 11:10:31;;;;;;;3.28;0.70;;;;;;;;;;5093740;28;20036;-83
2021/12/25 11:12:57;;;;;;;3.97;0.70;;;;;;;;;;5093672;28;20428;-83
2021/12/25 11:15:26;;;;;;;1.20;0.38;;;;;;;;;;5093534;28;20044;-82
2021/12/25 11:17:54;;;;;;;4.47;0.68;;;;;;;;;;5093864;28;20043;-83
2021/12/25 11:20:28;;;;;;;3.20;0.43;;;;;;;;;;5093397;28;20040;-84
2021/12/25 11:22:55;;;;;;;2.22;0.40;;;;;;;;;;5093831;28;20114;-84
2021/12/25 11:25:25;;;;;;;4.88;0.63;;;;;;;;;;5094920;28;20079;-86
2021/12/25 11:27:51;;;;;;;5.55;1.10;;;;;;;;;;5093520;28;20032;-86
2021/12/25 11:30:20;;;;;;;5.38;0.90;;;;;;;;;;5076464;28;20044;-83
2021/12/25 11:32:46;;;;;;;3.00;0.40;;;;;;;;;;5094836;28;20047;-82
2021/12/25 11:35:13;;;;;;;4.22;0.68;;;;;;;;;;5094458;28;20494;-83
2021/12/25 11:37:39;;;;;;;2.78;0.82;;;;;;;;;;5093357;28;20509;-82
2021/12/25 11:40:07;;;;;;;3.47;0.80;;;;;;;;;;5093050;28;20044;-84
2021/12/25 11:42:33;;;;;;;2.22;0.88;;;;;;;;;;5093237;28;20131;-82
2021/12/25 11:45:10;;;;;;;3.13;0.68;;;;;;;;;;5091949;28;20047;-83
2021/12/25 11:47:41;;;;;;;3.70;0.50;;;;;;;;;;5094868;28;20059;-83
2021/12/25 11:50:10;;;;;;;3.42;1.33;;;;;;;;;;5094642;28;20114;-84
2021/12/25 11:52:53;;;;;;;1.38;0.32;;;;;;;;;;5094131;28;20043;-83
2021/12/25 11:56:19;;;;;;;5.65;0.60;;;;;;;;;;5094352;28;20403;-83
2021/12/25 11:58:25;;;;;;;3.17;0.50;;;;;;;;;;5095900;28;20252;-83
2021/12/25 12:00:52;;;;;;;2.42;0.52;;;;;;;;;;5092834;28;20498;-83
2021/12/25 12:03:38;;;;;;;4.88;0.50;;;;;;;;;;5094200;28;20047;-83
2021/12/25 12:06:04;;;;;;;3.58;1.17;;;;;;;;;;5094071;28;20043;-82
2021/12/25 12:08:31;;;;;;;2.00;0.32;;;;;;;;;;5092727;28;20043;-84
2021/12/25 12:11:00;;;;;;;2.20;0.57;;;;;;;;;;5093829;28;20054;-84
2021/12/25 12:13:29;;;;;;;4.82;0.60;;;;;;;;;;5093878;28;20122;-84
2021/12/25 12:15:57;;;;;;;6.88;1.40;;;;;;;;;;5092418;28;20044;-83
2021/12/25 12:18:27;;;;;;;4.32;0.60;;;;;;;;;;5093796;28;20499;-83
2021/12/25 12:20:57;;;;;;;2.63;0.60;;;;;;;;;;5092085;28;20558;-83
2021/12/25 12:23:36;;;;;;;4.45;0.50;;;;;;;;;;5092336;28;20046;-84
2021/12/25 12:26:07;;;;;;;2.08;0.77;;;;;;;;;;5092289;28;20048;-84
2021/12/25 12:28:52;;;;;;;3.85;0.65;;;;;;;;;;5093674;28;20505;-85
2021/12/25 12:31:37;;;;;;;3.22;0.68;;;;;;;;;;5092075;28;20048;-83
2021/12/25 12:34:22;;;;;;;2.75;0.60;;;;;;;;;;5092212;28;20044;-85
2021/12/25 12:36:48;;;;;;;4.72;0.80;;;;;;;;;;5092330;28;20604;-84
2021/12/25 12:39:18;;;;;;;4.70;0.68;;;;;;;;;;5093614;28;20040;-83
2021/12/25 12:41:51;;;;;;;5.90;0.90;;;;;;;;;;5092068;28;20048;-84
2021/12/25 12:44:25;;;;;;;2.58;0.63;;;;;;;;;;5093461;28;20047;-83
2021/12/25 12:46:52;;;;;;;2.10;0.60;;;;;;;;;;5092090;28;20133;-84
2021/12/25 12:49:26;;;;;;;3.40;0.73;;;;;;;;;;5078363;28;20031;-84
2021/12/25 12:52:12;;;;;;;3.70;0.75;;;;;;;;;;5093177;28;20513;-83
2021/12/25 12:54:38;;;;;;;;;;;;;;;;;;5092268;28;20395;-83
2021/12/25 12:57:04;;;;;;;4.30;0.50;;;;;;;;;;5093032;28;19916;-83
2021/12/25 12:59:46;;;;;;;3.33;0.70;;;;;;;;;;5093197;28;20177;-83
2021/12/25 13:02:13;;;;;;;3.17;0.70;;;;;;;;;;5091600;28;20040;-84
2021/12/25 13:04:43;;;;;;;4.03;0.60;;;;;;;;;;5091776;28;20040;-84
2021/12/25 13:07:13;;;;;;;3.28;0.50;;;;;;;;;;5093116;28;20032;-83
2021/12/25 13:09:44;;;;;;;1.92;0.50;;;;;;;;;;5091718;28;20553;-83
2021/12/25 13:12:23;;;;;;;4.25;0.77;;;;;;;;;;5074878;28;20052;-84
2021/12/25 13:15:04;;;;;;;3.60;0.80;;;;;;;;;;5092233;28;20093;-85
2021/12/25 13:17:30;;;;;;;5.10;0.95;;;;;;;;;;5093000;28;20072;-83
2021/12/25 13:19:56;;;;;;;6.88;1.40;;;;;;;;;;5091844;28;20059;-82
2021/12/25 13:22:22;;;;;;;4.28;1.67;;;;;;;;;;5091070;28;20063;-82
2021/12/25 13:24:54;;;;;;;7.07;2.80;;;;;;;;;;5091840;28;20073;-83
2021/12/25 13:27:20;;;;;;;7.28;3.75;;;;;;;;;;5091745;28;20054;-83
2021/12/25 13:29:47;;;;;;;6.05;2.72;;;;;;;;;;5092929;28;20051;-84
2021/12/25 13:32:13;;;;;;;7.35;2.42;;;;;;;;;;5091346;28;20040;-83
2021/12/25 13:34:39;;;;;;;3.83;1.60;;;;;;;;;;5092987;28;20096;-83
2021/12/25 13:37:13;;;;;;;8.73;1.60;;;;;;;;;;5092835;28;20044;-83
2021/12/25 13:39:41;;;;;;;4.72;0.90;;;;;;;;;;5091896;28;20074;-83
2021/12/25 13:42:12;;;;;;;3.63;1.15;;;;;;;;;;5092642;28;20131;-83
2021/12/25 13:44:40;;;;;;;4.53;0.90;;;;;;;;;;5094967;28;20044;-82
2021/12/25 13:47:12;;;;;;;3.83;0.82;;;;;;;;;;5090781;28;20185;-83
2021/12/25 13:49:47;;;;;;;3.70;0.65;;;;;;;;;;5091490;28;20077;-82
2021/12/25 13:52:24;;;;;;;5.03;0.70;;;;;;;;;;5091172;28;20072;-83
2021/12/25 13:54:57;;;;;;;4.18;0.73;;;;;;;;;;5092832;28;20038;-83
2021/12/25 13:57:25;;;;;;;3.42;0.70;;;;;;;;;;5092773;28;20040;-84
2021/12/25 13:59:55;;;;;;;2.67;0.70;;;;;;;;;;5092703;28;20032;-83
2021/12/25 14:02:23;;;;;;;4.65;0.77;;;;;;;;;;5092561;28;20504;-82
2021/12/25 14:04:52;;;;;;;4.75;0.50;;;;;;;;;;5091203;28;20506;-82
2021/12/25 14:07:20;;;;;;;6.10;1.00;;;;;;;;;;5092933;28;20188;-82
2021/12/25 14:09:54;;;;;;;4.60;0.90;;;;;;;;;;5095238;28;20391;-83
2021/12/25 14:12:21;;;;;;;4.65;0.90;;;;;;;;;;5096050;28;20040;-82
2021/12/25 14:14:47;;;;;;;3.08;0.95;;;;;;;;;;5095127;28;20507;-82
2021/12/25 14:17:14;;;;;;;2.88;0.73;;;;;;;;;;5094899;28;20054;-83
2021/12/25 14:19:40;;;;;;;4.82;0.90;;;;;;;;;;5094860;28;20051;-81
2021/12/25 14:22:06;;;;;;;3.63;0.70;;;;;;;;;;5094348;28;20059;-83
2021/12/25 14:24:42;;;;;;;3.30;0.73;;;;;;;;;;5094639;28;20491;-82
2021/12/25 14:27:13;;;;;;;3.88;1.02;;;;;;;;;;5095801;28;20039;-82
2021/12/25 14:29:39;;;;;;;6.00;0.95;;;;;;;;;;5094982;28;20368;-82
2021/12/25 14:32:05;;;;;;;3.95;0.93;;;;;;;;;;5094410;28;20072;-82
2021/12/25 14:34:34;;;;;;;3.88;0.80;;;;;;;;;;5096066;28;20395;-81
2021/12/25 14:37:00;;;;;;;6.60;1.15;;;;;;;;;;5095798;28;20119;-83
2021/12/25 14:39:27;;;;;;;2.85;1.13;;;;;;;;;;5096941;28;20052;-80
2021/12/25 14:41:53;;;;;;;13.95;1.38;;;;;;;;;;5094357;28;20038;-82
2021/12/25 14:44:20;;;;;;;9.55;2.03;;;;;;;;;;5094610;28;20036;-82
2021/12/25 14:46:47;;;;;;;3.88;1.25;;;;;;;;;;5077297;28;20495;-82
2021/12/25 14:49:13;;;;;;;3.92;0.82;;;;;;;;;;5094574;28;20044;-82
2021/12/25 14:51:41;;;;;;;5.70;0.93;;;;;;;;;;5095404;28;20040;-82
2021/12/25 14:54:08;;;;;;;7.05;1.30;;;;;;;;;;5094093;28;20487;-82
2021/12/25 14:56:41;;;;;;;5.35;1.48;;;;;;;;;;5094029;28;20395;-82
2021/12/25 14:59:09;;;;;;;8.00;1.50;;;;;;;;;;5094292;28;20104;-83
2021/12/25 15:01:37;;;;;;;4.45;1.20;;;;;;;;;;5095359;28;20036;-82
2021/12/25 15:04:09;;;;;;;4.72;1.40;;;;;;;;;;5095500;28;20044;-81
2021/12/25 15:06:35;;;;;;;8.23;1.40;;;;;;;;;;5093743;28;20036;-81
2021/12/25 15:09:04;;;;;;;7.60;1.77;;;;;;;;;;5093930;28;20050;-83
2021/12/25 15:11:37;;;;;;;8.32;1.85;;;;;;;;;;5093787;28;20127;-83
2021/12/25 15:14:11;;;;;;;7.55;2.00;;;;;;;;;;5095035;28;20419;-82
2021/12/25 15:16:48;;;;;;;6.15;2.10;;;;;;;;;;5094812;28;20391;-82
2021/12/25 15:19:28;;;;;;;11.63;2.05;;;;;;;;;;5076863;28;20046;-82
2021/12/25 15:21:55;;;;;;;6.55;1.80;;;;;;;;;;5093301;28;20055;-82
2021/12/25 15:24:22;;;;;;;7.85;1.85;;;;;;;;;;5093766;28;20093;-81
2021/12/25 15:26:50;;;;;;;14.35;2.63;;;;;;;;;;5093622;28;20085;-83
2021/12/25 15:29:16;;;;;;;5.45;1.15;;;;;;;;;;5093882;28;20036;-82
2021/12/25 15:31:43;;;;;;;4.88;1.30;;;;;;;;;;5093333;28;20123;-82
2021/12/25 15:34:11;;;;;;;5.88;1.25;;;;;;;;;;5093386;28;20040;-82
2021/12/25 15:36:42;;;;;;;7.35;1.10;;;;;;;;;;5094666;28;20044;-82
2021/12/25 15:39:14;;;;;;;4.00;1.10;;;;;;;;;;5096600;28;20066;-82
2021/12/25 15:41:41;;;;;;;2.38;0.80;;;;;;;;;;5076224;28;20614;-82
2021/12/25 15:44:07;;;;;;;2.70;0.95;;;;;;;;;;5093401;28;20067;-82
2021/12/25 15:46:33;;;;;;;4.28;1.20;;;;;;;;;;5093408;28;20381;-82
2021/12/25 15:48:59;;;;;;;5.03;1.05;;;;;;;;;;5093073;28;20047;-83
2021/12/25 15:51:28;;;;;;;4.63;1.20;;;;;;;;;;5093303;28;20563;-82
2021/12/25 15:53:54;;;;;;;6.35;1.40;;;;;;;;;;5093340;28;20123;-83
2021/12/25 15:56:20;;;;;;;7.38;1.50;;;;;;;;;;5094123;28;20071;-82
2021/12/25 15:58:46;;;;;;;5.30;1.50;;;;;;;;;;5094479;28;20394;-82
2021/12/25 16:01:12;;;;;;;5.03;1.35;;;;;;;;;;5092829;28;20503;-83
2021/12/25 16:03:38;;;;;;;5.32;1.30;;;;;;;;;;5092794;28;20043;-81
2021/12/25 16:06:05;;;;;;;4.65;1.38;;;;;;;;;;5094090;28;20394;-81
2021/12/25 16:08:31;;;;;;;6.32;1.25;;;;;;;;;;5092674;28;20502;-82
2021/12/25 16:10:58;;;;;;;7.45;1.30;;;;;;;;;;5092937;28;20380;-82
2021/12/25 16:13:24;;;;;;;4.78;1.23;;;;;;;;;;5093903;28;20047;-81
2021/12/25 16:15:51;;;;;;;6.13;1.48;;;;;;;;;;5094101;28;20043;-81
2021/12/25 16:18:18;;;;;;;4.43;1.63;;;;;;;;;;5092345;28;20059;-82
2021/12/25 16:20:44;;;;;;;4.80;1.65;;;;;;;;;;5092585;28;20059;-81
2021/12/25 16:23:10;;;;;;;7.25;1.60;;;;;;;;;;5092211;28;20047;-83
2021/12/25 16:25:36;;;;;;;6.03;1.40;;;;;;;;;;5093650;28;20503;-81
2021/12/25 16:28:03;;;;;;;7.20;1.70;;;;;;;;;;5092215;28;20031;-83
2021/12/25 16:30:30;;;;;;;5.97;1.50;;;;;;;;;;5091828;28;20036;-81
2021/12/25 16:32:59;;;;;;;4.65;1.77;;;;;;;;;;5092045;28;20036;-83
2021/12/25 16:35:25;;;;;;;5.32;1.10;;;;;;;;;;5093499;28;20043;-82
2021/12/25 16:37:51;;;;;;;4.53;1.85;;;;;;;;;;5096223;28;20070;-81
2021/12/25 16:40:17;;;;;;;4.90;1.50;;;;;;;;;;5093652;28;20075;-83
2021/12/25 16:42:43;;;;;;;5.32;1.70;;;;;;;;;;5091874;28;20510;-82
2021/12/25 16:45:09;;;;;;;5.18;1.67;;;;;;;;;;5093414;28;20086;-82
2021/12/25 16:47:35;;;;;;;6.53;1.90;;;;;;;;;;5092172;28;20040;-82
2021/12/25 16:50:01;;;;;;;6.93;2.53;;;;;;;;;;5093567;28;20039;-82
2021/12/25 16:52:27;;;;;;;7.60;1.95;;;;;;;;;;5092008;28;20403;-83
2021/12/25 16:54:53;;;;;;;7.53;2.10;;;;;;;;;;5074981;28;20051;-83
2021/12/25 16:57:19;;;;;;;9.70;2.80;;;;;;;;;;5093079;28;20040;-83
2021/12/25 16:59:45;;;;;;;10.40;2.63;;;;;;;;;;5093324;28;20156;-82
2021/12/25 17:02:13;;;;;;;6.55;2.55;;;;;;;;;;5091674;28;20044;-81
2021/12/25 17:04:39;;;;;;;9.52;3.10;;;;;;;;;;5093235;28;20036;-82
2021/12/25 17:07:08;;;;;;;9.68;2.72;;;;;;;;;;5091626;28;20071;-83
2021/12/25 17:09:34;;;;;;;12.95;2.90;;;;;;;;;;5091819;28;20478;-82
2021/12/25 17:12:00;;;;;;;6.18;2.35;;;;;;;;;;5091651;28;20123;-82
2021/12/25 17:14:26;;;;;;;8.88;2.50;;;;;;;;;;5091965;28;20420;-85
2021/12/25 17:16:52;;;;;;;6.68;1.88;;;;;;;;;;5091583;28;20127;-82
2021/12/25 17:19:18;;;;;;;6.30;1.60;;;;;;;;;;5091701;28;20087;-82
2021/12/25 17:21:45;;;;;;;6.25;1.52;;;;;;;;;;5092590;28;20380;-83
2021/12/25 17:24:11;;;;;;;8.60;1.80;;;;;;;;;;5091526;28;20143;-83
2021/12/25 17:26:37;;;;;;;5.15;1.63;;;;;;;;;;5093112;28;20036;-83
2021/12/25 17:29:04;;;;;;;6.53;2.00;;;;;;;;;;5091666;28;20119;-82
2021/12/25 17:31:30;;;;;;;4.82;1.92;;;;;;;;;;5092808;28;20555;-84
2021/12/25 17:33:56;;;;;;;5.05;1.60;;;;;;;;;;5091638;28;20040;-83
2021/12/25 17:36:23;;;;;;;4.93;1.35;;;;;;;;;;5091430;28;20066;-83
2021/12/25 17:38:50;;;;;;;9.27;1.70;;;;;;;;;;5091558;28;20101;-82
2021/12/25 17:41:22;;;;;;;5.63;1.58;;;;;;;;;;5091572;28;20127;-82
2021/12/25 17:43:48;;;;;;;6.15;1.60;;;;;;;;;;5077735;28;20383;-82
2021/12/25 17:46:14;;;;;;;4.35;1.60;;;;;;;;;;5096933;28;20042;-83
2021/12/25 17:48:41;;;;;;;9.60;1.83;;;;;;;;;;5096263;28;20040;-83
2021/12/25 17:51:07;;;;;;;6.05;1.55;;;;;;;;;;5096679;28;20083;-83
2021/12/25 17:53:34;;;;;;;4.88;1.70;;;;;;;;;;5095516;28;20076;-83
2021/12/25 17:56:01;;;;;;;5.53;1.75;;;;;;;;;;5096827;28;20077;-83
2021/12/25 17:58:27;;;;;;;7.20;1.88;;;;;;;;;;5096632;28;20055;-82
2021/12/25 18:00:53;;;;;;;5.68;2.05;;;;;;;;;;5096781;28;20121;-82
2021/12/25 18:03:19;;;;;;;5.40;2.20;;;;;;;;;;5096211;28;20131;-83
2021/12/25 18:05:46;;;;;;;5.65;1.85;;;;;;;;;;5095248;28;20075;-83
2021/12/25 18:08:12;;;;;;;5.35;2.20;;;;;;;;;;5096497;28;20032;-84
2021/12/25 18:10:38;;;;;;;7.38;2.17;;;;;;;;;;5095066;28;20079;-84
2021/12/25 18:13:04;;;;;;;8.02;2.10;;;;;;;;;;5094782;28;20032;-84
2021/12/25 18:15:32;;;;;;;4.57;1.70;;;;;;;;;;5095276;28;20036;-85
2021/12/25 18:17:58;;;;;;;6.43;2.13;;;;;;;;;;5096216;28;20047;-83
2021/12/25 18:20:26;;;;;;;4.90;1.88;;;;;;;;;;5094615;28;20039;-84
2021/12/25 18:22:53;;;;;;;7.28;1.60;;;;;;;;;;5095935;28;20068;-83
2021/12/25 18:25:19;;;;;;;7.22;1.85;;;;;;;;;;5094831;28;20036;-85
2021/12/25 18:27:45;;;;;;;7.00;2.00;;;;;;;;;;5095952;28;20123;-89
2021/12/25 18:30:12;;;;;;;6.22;1.85;;;;;;;;;;5094952;28;20036;-84
2021/12/25 18:32:38;;;;;;;7.15;1.90;;;;;;;;;;5094293;28;20403;-84
2021/12/25 18:35:05;;;;;;;6.47;1.80;;;;;;;;;;5094860;28;20048;-84
2021/12/25 18:37:31;;;;;;;5.95;1.73;;;;;;;;;;5094616;28;20371;-83
2021/12/25 18:39:57;;;;;;;5.38;1.83;;;;;;;;;;5095991;28;20048;-85
2021/12/25 18:42:24;;;;;;;6.28;1.65;;;;;;;;;;5095844;28;20041;-85
2021/12/25 18:44:50;;;;;;;5.88;2.20;;;;;;;;;;5094295;28;20048;-84
2021/12/25 18:47:16;;;;;;;6.55;1.80;;;;;;;;;;5095728;28;20352;-83
2021/12/25 18:49:42;;;;;;;8.45;2.05;;;;;;;;;;5094182;28;20093;-84
2021/12/25 18:52:08;;;;;;;6.25;2.17;;;;;;;;;;5094241;28;20039;-84
2021/12/25 18:54:34;;;;;;;6.43;2.00;;;;;;;;;;5094730;28;20460;-83
2021/12/25 18:57:01;;;;;;;6.53;2.47;;;;;;;;;;5094473;28;20093;-86
2021/12/25 18:59:27;;;;;;;6.00;2.20;;;;;;;;;;5095497;28;20105;-84
2021/12/25 19:01:54;;;;;;;8.07;2.13;;;;;;;;;;5093940;28;20437;-83
2021/12/25 19:04:20;;;;;;;5.10;1.83;;;;;;;;;;5093998;28;20044;-84
2021/12/25 19:06:46;;;;;;;6.00;2.20;;;;;;;;;;5094314;28;20044;-83
2021/12/25 19:09:12;;;;;;;5.00;2.00;;;;;;;;;;5093958;28;20044;-83
2021/12/25 19:11:38;;;;;;;5.95;2.30;;;;;;;;;;5093849;28;20040;-82
2021/12/25 19:14:04;;;;;;;4.78;1.80;;;;;;;;;;5093970;28;20051;-84
2021/12/25 19:16:30;;;;;;;6.55;2.80;;;;;;;;;;5093758;28;20048;-84
2021/12/25 19:18:57;;;;;;;6.50;3.05;;;;;;;;;;5076694;28;20040;-83
2021/12/25 19:21:23;;;;;;;6.22;1.90;;;;;;;;;;5093711;28;20537;-84
2021/12/25 19:23:49;;;;;;;6.78;2.35;;;;;;;;;;5093374;28;20048;-83
2021/12/25 19:26:15;;;;;;;6.68;2.40;;;;;;;;;;5095196;28;20046;-84
2021/12/25 19:28:42;;;;;;;6.60;1.73;;;;;;;;;;5094673;28;20072;-83
2021/12/25 19:31:08;;;;;;;8.57;1.80;;;;;;;;;;5093866;28;20039;-84
2021/12/25 19:33:34;;;;;;;4.88;1.65;;;;;;;;;;5094749;28;20040;-84
2021/12/25 19:36:00;;;;;;;9.05;2.05;;;;;;;;;;5093427;28;20083;-84
2021/12/25 19:38:27;;;;;;;4.95;2.00;;;;;;;;;;5093458;28;20059;-85
2021/12/25 19:40:55;;;;;;;7.35;1.90;;;;;;;;;;5093446;28;20115;-85
2021/12/25 19:43:21;;;;;;;7.38;1.77;;;;;;;;;;5094403;28;20074;-85
2021/12/25 19:45:49;;;;;;;7.90;2.38;;;;;;;;;;5093229;28;20165;-85
2021/12/25 19:48:15;;;;;;;4.22;1.80;;;;;;;;;;5092960;28;20051;-84
2021/12/25 19:50:43;;;;;;;6.38;1.90;;;;;;;;;;5093347;28;20040;-83
2021/12/25 19:53:10;;;;;;;5.75;2.15;;;;;;;;;;5093219;28;20111;-86
2021/12/25 19:55:37;;;;;;;6.50;1.75;;;;;;;;;;5094394;28;20044;-85
2021/12/25 19:58:03;;;;;;;5.13;1.85;;;;;;;;;;5093428;28;20101;-84
2021/12/25 20:00:33;;;;;;;4.72;1.88;;;;;;;;;;5092908;28;20407;-84
2021/12/25 20:03:00;;;;;;;5.50;1.80;;;;;;;;;;5092874;28;20070;-86
2021/12/25 20:05:26;;;;;;;5.00;2.17;;;;;;;;;;5093323;28;20093;-85
2021/12/25 20:07:53;;;;;;;6.15;2.10;;;;;;;;;;5092863;28;20036;-85
2021/12/25 20:10:21;;;;;;;5.00;2.03;;;;;;;;;;5093755;28;20455;-86
2021/12/25 20:12:47;;;;;;;5.82;2.10;;;;;;;;;;5092599;28;20058;-85
2021/12/25 20:15:14;;;;;;;8.25;2.20;;;;;;;;;;5092430;28;20100;-85
2021/12/25 20:17:40;;;;;;;6.78;2.20;;;;;;;;;;5094189;28;20044;-85
2021/12/25 20:20:07;;;;;;;5.65;2.05;;;;;;;;;;5093851;28;20047;-85
2021/12/25 20:22:33;;;;;;;5.10;2.60;;;;;;;;;;5093481;28;20055;-87
2021/12/25 20:24:59;;;;;;;6.30;2.38;;;;;;;;;;5093870;28;20051;-86
2021/12/25 20:27:26;;;;;;;8.02;2.17;;;;;;;;;;5093956;28;20040;-86
2021/12/25 20:29:52;;;;;;;6.40;2.85;;;;;;;;;;5092580;28;20344;-88
2021/12/25 20:32:18;;;;;;;10.20;2.78;;;;;;;;;;5092294;28;20043;-86
2021/12/25 20:34:44;;;;;;;5.82;2.00;;;;;;;;;;5093511;28;20050;-85
2021/12/25 20:37:10;;;;;;;4.28;1.60;;;;;;;;;;5093825;28;20040;-86
2021/12/25 20:39:36;;;;;;;4.97;2.00;;;;;;;;;;5091990;28;20043;-86
2021/12/25 20:42:03;;;;;;;6.57;2.30;;;;;;;;;;5093455;28;20050;-87
2021/12/25 20:47:03;;;;;;;6.72;2.38;;;;;;;;;;5093844;28;20036;-88
2021/12/25 20:49:29;;;;;;;10.48;2.28;;;;;;;;;;5093474;28;20450;-88
2021/12/25 20:51:57;;;;;;;5.35;1.92;;;;;;;;;;5092558;28;20506;-88
2021/12/25 20:54:23;;;;;;;6.20;2.17;;;;;;;;;;5092939;28;20048;-82
2021/12/25 20:56:50;;;;;;;7.57;2.25;;;;;;;;;;5097845;28;20410;-89
2021/12/25 20:59:16;;;;;;;5.45;2.30;;;;;;;;;;5093550;28;20104;-87
2021/12/25 21:01:42;;;;;;;6.78;2.00;;;;;;;;;;5091803;28;20050;-85
2021/12/25 21:04:09;;;;;;;7.65;2.30;;;;;;;;;;5093047;28;20050;-84
2021/12/25 21:06:35;;;;;;;6.25;1.80;;;;;;;;;;5091773;28;20036;-87
2021/12/25 21:09:01;;;;;;;7.80;2.13;;;;;;;;;;5091582;28;20115;-86
2021/12/25 21:11:28;;;;;;;5.82;2.00;;;;;;;;;;5091714;28;20079;-85
2021/12/25 21:13:54;;;;;;;7.28;2.53;;;;;;;;;;5092959;28;20064;-87
2021/12/25 21:16:20;;;;;;;7.35;2.25;;;;;;;;;;5074606;28;20514;-86
2021/12/25 21:18:47;;;;;;;6.50;2.40;;;;;;;;;;5074844;28;20044;-86
2021/12/25 21:21:13;;;;;;;6.97;2.25;;;;;;;;;;5092690;28;20044;-87
2021/12/25 21:23:39;;;;;;;7.65;1.98;;;;;;;;;;5093086;28;20040;-87
2021/12/25 21:26:05;;;;;;;5.88;2.22;;;;;;;;;;5092887;28;20039;-86
2021/12/25 21:28:32;;;;;;;6.45;2.03;;;;;;;;;;5093149;28;20063;-85
2021/12/25 21:30:58;;;;;;;5.65;2.33;;;;;;;;;;5091831;28;20090;-88
2021/12/25 21:33:25;;;;;;;8.18;3.00;;;;;;;;;;5091783;28;20043;-87
2021/12/25 21:35:52;;;;;;;6.50;2.60;;;;;;;;;;5091544;28;20066;-85
2021/12/25 21:38:18;;;;;;;6.38;2.67;;;;;;;;;;5075207;28;20044;-86
2021/12/25 21:40:44;;;;;;;9.98;2.50;;;;;;;;;;5092917;28;20036;-86
2021/12/25 21:43:10;;;;;;;5.20;2.22;;;;;;;;;;5075055;28;20040;-85
2021/12/25 21:45:36;;;;;;;5.45;2.00;;;;;;;;;;5092973;28;20058;-86
2021/12/25 21:48:03;;;;;;;5.53;2.42;;;;;;;;;;5092358;28;20051;-86
2021/12/25 21:50:30;;;;;;;11.73;2.40;;;;;;;;;;5103698;28;20040;-92
2021/12/25 21:52:58;;;;;;;8.25;1.88;;;;;;;;;;5092016;28;20097;-86
2021/12/25 21:55:24;;;;;;;7.05;1.70;;;;;;;;;;5074717;28;20097;-86
2021/12/25 21:57:51;;;;;;;5.57;2.22;;;;;;;;;;5092797;28;20040;-86
2021/12/25 22:00:19;;;;;;;5.53;2.00;;;;;;;;;;5092548;28;20036;-86
2021/12/25 22:02:46;;;;;;;4.78;2.00;;;;;;;;;;5092607;28;20075;-86
2021/12/25 22:05:12;;;;;;;6.28;2.20;;;;;;;;;;5091032;28;20067;-86
2021/12/25 22:07:41;;;;;;;6.65;2.53;;;;;;;;;;5092719;28;20042;-85
2021/12/25 22:10:08;;;;;;;5.50;1.92;;;;;;;;;;5091462;28;20040;-86
2021/12/25 22:12:34;;;;;;;6.47;1.70;;;;;;;;;;5091029;28;20102;-86
2021/12/25 22:15:00;;;;;;;3.85;1.63;;;;;;;;;;5091130;28;20040;-86
2021/12/25 22:17:26;;;;;;;6.32;1.98;;;;;;;;;;5091089;28;20040;-86
2021/12/25 22:19:56;;;;;;;5.97;1.70;;;;;;;;;;5092492;28;20080;-86
2021/12/25 22:22:23;;;;;;;6.63;2.15;;;;;;;;;;5092251;28;20052;-85
2021/12/25 22:24:49;;;;;;;7.50;2.03;;;;;;;;;;5090964;28;20479;-86
